Time;durP1;ratioP1;P1;durP2;ratioP2;P2;SDS_P1;SDS_P2;PMS_P1;PMS_P2;Temp;Humidity;BMP_temperature;BMP_pressure;BME280_temperature;BME280_humidity;BME280_pressure;Samples;Min_cycle;Max_cycle;Signal;HPM_P1;HPM_P2
2023/10/30 00:01:15;;;;;;;4.15;3.65;;;10.10;97.10;;;;;;5030830;28;20202;-82
2023/10/30 00:03:42;;;;;;;5.38;3.47;;;10.10;96.90;;;;;;5030450;28;20201;-83
2023/10/30 00:06:08;;;;;;;4.70;3.40;;;10.00;96.90;;;;;;5023818;28;20221;-83
2023/10/30 00:08:35;;;;;;;4.60;3.30;;;9.90;97.20;;;;;;5031894;28;20218;-83
2023/10/30 00:11:02;;;;;;;5.53;3.65;;;9.80;97.40;;;;;;5025495;28;20187;-82
2023/10/30 00:13:29;;;;;;;5.45;3.35;;;9.80;97.60;;;;;;5032150;28;20241;-83
2023/10/30 00:15:57;;;;;;;5.78;3.55;;;9.70;97.90;;;;;;5028874;28;20827;-83
2023/10/30 00:18:24;;;;;;;4.90;3.45;;;9.60;98.20;;;;;;5031148;28;20201;-82
2023/10/30 00:20:51;;;;;;;6.32;3.25;;;9.60;98.40;;;;;;5037127;28;20684;-82
2023/10/30 00:23:17;;;;;;;4.60;3.08;;;9.80;98.20;;;;;;5030346;28;20205;-82
2023/10/30 00:25:44;;;;;;;3.85;3.13;;;9.80;97.80;;;;;;5028871;28;20198;-83
2023/10/30 00:28:11;;;;;;;5.00;3.03;;;9.90;97.60;;;;;;5024452;28;20190;-82
2023/10/30 00:30:38;;;;;;;5.13;3.47;;;10.00;96.80;;;;;;5026479;28;20191;-83
2023/10/30 00:33:06;;;;;;;4.35;3.28;;;9.80;97.20;;;;;;5028693;28;20218;-82
2023/10/30 00:35:33;;;;;;;4.50;2.95;;;9.70;97.70;;;;;;5031894;28;20195;-83
2023/10/30 00:38:00;;;;;;;4.65;3.40;;;9.80;97.70;;;;;;5031345;28;20601;-83
2023/10/30 00:40:27;;;;;;;3.72;3.17;;;9.70;97.40;;;;;;5032064;28;20190;-82
2023/10/30 00:42:54;;;;;;;5.20;3.33;;;9.60;97.60;;;;;;5029788;28;20198;-83
2023/10/30 00:45:20;;;;;;;5.75;3.53;;;9.40;98.10;;;;;;5030181;28;20213;-83
2023/10/30 00:47:47;;;;;;;4.53;3.28;;;9.30;98.10;;;;;;5030719;28;20209;-83
2023/10/30 00:50:16;;;;;;;5.20;3.30;;;9.30;98.40;;;;;;5029463;28;20194;-83
2023/10/30 00:52:43;;;;;;;7.75;3.47;;;9.30;98.10;;;;;;5019249;28;20250;-83
2023/10/30 00:55:09;;;;;;;6.45;3.70;;;9.20;98.20;;;;;;5025073;28;20627;-83
2023/10/30 00:57:36;;;;;;;5.10;3.10;;;9.20;98.20;;;;;;5028135;28;20232;-82
2023/10/30 01:00:04;;;;;;;5.25;3.30;;;9.20;98.40;;;;;;5029411;28;20202;-83
2023/10/30 01:02:31;;;;;;;4.15;3.15;;;9.10;98.30;;;;;;5023901;28;20218;-82
2023/10/30 01:04:58;;;;;;;4.63;3.10;;;9.00;98.80;;;;;;5023132;28;20202;-82
2023/10/30 01:07:27;;;;;;;3.97;3.22;;;9.00;99.30;;;;;;5028428;28;20245;-82
2023/10/30 01:09:53;;;;;;;6.35;3.63;;;9.00;99.20;;;;;;5029646;28;20198;-82
2023/10/30 01:12:20;;;;;;;4.72;3.20;;;8.90;99.20;;;;;;5027939;28;20206;-83
2023/10/30 01:14:47;;;;;;;5.30;2.95;;;8.90;99.30;;;;;;5025788;28;20198;-83
2023/10/30 01:17:14;;;;;;;4.03;3.00;;;8.90;99.30;;;;;;5026480;28;20195;-83
2023/10/30 01:19:43;;;;;;;4.90;3.53;;;8.80;99.30;;;;;;5031944;28;20194;-83
2023/10/30 01:22:10;;;;;;;6.75;3.10;;;8.80;99.70;;;;;;5030913;28;20191;-82
2023/10/30 01:24:39;;;;;;;5.40;3.10;;;8.70;99.80;;;;;;5026231;28;20225;-82
2023/10/30 01:27:06;;;;;;;4.30;2.70;;;8.60;99.90;;;;;;5031456;28;20190;-82
2023/10/30 01:29:33;;;;;;;3.83;3.15;;;8.60;99.90;;;;;;5028244;28;20567;-83
2023/10/30 01:32:00;;;;;;;4.63;3.05;;;8.70;99.90;;;;;;5026563;28;20670;-82
2023/10/30 01:34:26;;;;;;;4.85;2.72;;;8.80;99.80;;;;;;5028735;28;20222;-82
2023/10/30 01:36:53;;;;;;;3.97;2.75;;;8.70;99.70;;;;;;5028689;28;20197;-82
2023/10/30 01:39:20;;;;;;;4.15;2.85;;;8.70;99.80;;;;;;5026607;28;20643;-82
2023/10/30 01:41:48;;;;;;;3.90;2.20;;;8.50;99.90;;;;;;5028584;28;20635;-82
2023/10/30 01:44:15;;;;;;;5.93;2.72;;;8.50;99.90;;;;;;5030626;28;20662;-82
2023/10/30 01:46:42;;;;;;;3.42;2.42;;;8.50;99.90;;;;;;5030356;28;20195;-82
2023/10/30 01:49:09;;;;;;;4.00;2.55;;;8.50;99.90;;;;;;5028353;28;20193;-82
2023/10/30 01:51:37;;;;;;;3.50;2.65;;;8.50;99.90;;;;;;5032223;28;20215;-83
2023/10/30 01:54:05;;;;;;;4.85;3.00;;;8.50;99.90;;;;;;5031439;28;20540;-82
2023/10/30 01:56:33;;;;;;;3.45;2.47;;;8.50;99.90;;;;;;5025186;28;20201;-82
2023/10/30 01:59:02;;;;;;;5.70;2.67;;;8.50;99.90;;;;;;5027162;28;20187;-82
2023/10/30 02:01:30;;;;;;;4.55;2.40;;;8.50;99.90;;;;;;5031682;28;20194;-82
2023/10/30 02:03:58;;;;;;;3.67;2.78;;;8.40;99.90;;;;;;5032920;28;20202;-82
2023/10/30 02:06:24;;;;;;;3.28;2.53;;;8.30;99.90;;;;;;5031967;28;20636;-82
2023/10/30 02:08:52;;;;;;;3.22;2.15;;;8.20;99.90;;;;;;5033900;28;20210;-82
2023/10/30 02:11:18;;;;;;;2.63;2.33;;;8.20;99.90;;;;;;5034641;28;20218;-82
2023/10/30 02:13:55;;;;;;;3.55;2.95;;;8.20;99.90;;;;;;5032445;28;20218;-82
2023/10/30 02:16:23;;;;;;;3.40;2.05;;;8.20;99.90;;;;;;5031082;28;20194;-82
2023/10/30 02:18:50;;;;;;;3.30;2.50;;;8.20;99.90;;;;;;5050721;28;20553;-82
2023/10/30 02:21:18;;;;;;;6.45;2.58;;;8.30;99.90;;;;;;5033686;28;20195;-82
2023/10/30 02:23:44;;;;;;;3.40;2.35;;;8.30;99.90;;;;;;5036003;28;20545;-82
2023/10/30 02:26:13;;;;;;;3.67;2.30;;;8.50;99.90;;;;;;5030621;28;20209;-82
2023/10/30 02:28:40;;;;;;;6.47;2.65;;;8.60;99.80;;;;;;5032708;28;20199;-83
2023/10/30 02:31:07;;;;;;;5.68;2.40;;;8.60;99.30;;;;;;5038000;28;20198;-82
2023/10/30 02:33:34;;;;;;;2.63;2.00;;;8.40;99.70;;;;;;5033452;28;20267;-82
2023/10/30 02:36:01;;;;;;;4.95;2.13;;;8.40;99.70;;;;;;5036578;28;20194;-82
2023/10/30 02:38:27;;;;;;;3.40;2.20;;;8.20;99.60;;;;;;5034478;28;20194;-82
2023/10/30 02:40:54;;;;;;;4.30;2.00;;;8.10;99.90;;;;;;5032682;28;20210;-82
2023/10/30 02:43:22;;;;;;;3.03;2.20;;;8.00;99.90;;;;;;5031946;28;20393;-82
2023/10/30 02:45:50;;;;;;;3.70;2.10;;;8.10;99.90;;;;;;5033147;28;20209;-82
2023/10/30 02:48:16;;;;;;;3.22;2.42;;;8.10;99.90;;;;;;5029875;28;20639;-82
2023/10/30 02:50:44;;;;;;;5.43;2.50;;;8.10;99.90;;;;;;5034107;28;20227;-82
2023/10/30 02:53:10;;;;;;;2.53;2.10;;;8.10;99.90;;;;;;5044245;28;20214;-82
2023/10/30 02:55:38;;;;;;;2.90;2.28;;;8.00;99.90;;;;;;5043311;28;20744;-82
2023/10/30 02:58:04;;;;;;;3.85;2.25;;;7.90;99.90;;;;;;5032747;28;20198;-82
2023/10/30 03:00:33;;;;;;;2.42;2.00;;;7.90;99.90;;;;;;5033137;28;20210;-82
2023/10/30 03:02:59;;;;;;;2.50;2.30;;;7.90;99.90;;;;;;5034313;28;20195;-82
2023/10/30 03:05:26;;;;;;;2.45;2.17;;;7.90;99.90;;;;;;5030409;28;20206;-83
2023/10/30 03:07:53;;;;;;;3.13;2.20;;;7.90;99.90;;;;;;5030897;28;20191;-82
2023/10/30 03:10:21;;;;;;;2.60;2.38;;;7.90;99.90;;;;;;5033817;28;20209;-82
2023/10/30 03:12:49;;;;;;;5.03;2.30;;;7.90;99.90;;;;;;5029083;28;20198;-82
2023/10/30 03:15:16;;;;;;;3.30;2.15;;;7.90;99.90;;;;;;5033635;28;20632;-82
2023/10/30 03:17:44;;;;;;;3.90;2.30;;;7.90;99.90;;;;;;5033348;28;20194;-82
2023/10/30 03:20:13;;;;;;;2.97;2.28;;;7.90;99.90;;;;;;5036864;28;20195;-82
2023/10/30 03:22:40;;;;;;;2.40;1.98;;;8.00;99.90;;;;;;5032517;28;20527;-83
2023/10/30 03:25:07;;;;;;;3.28;2.20;;;8.20;99.90;;;;;;5029026;28;20647;-82
2023/10/30 03:27:34;;;;;;;2.15;1.83;;;8.10;99.90;;;;;;5046176;28;20201;-81
2023/10/30 03:30:01;;;;;;;3.38;2.03;;;8.10;99.90;;;;;;5049886;28;20550;-82
2023/10/30 03:32:28;;;;;;;3.15;2.20;;;8.10;99.90;;;;;;5035937;28;20198;-82
2023/10/30 03:34:56;;;;;;;2.22;2.03;;;8.10;99.90;;;;;;5032772;28;20222;-82
2023/10/30 03:37:23;;;;;;;2.50;2.15;;;8.30;99.90;;;;;;5028670;28;20197;-82
2023/10/30 03:39:50;;;;;;;4.28;2.05;;;8.30;99.90;;;;;;5037513;28;20194;-82
2023/10/30 03:42:17;;;;;;;2.90;2.28;;;8.30;99.90;;;;;;5030893;28;20198;-82
2023/10/30 03:44:44;;;;;;;4.47;2.13;;;8.20;99.90;;;;;;5033302;28;20236;-82
2023/10/30 03:47:11;;;;;;;3.08;2.00;;;8.30;99.90;;;;;;5029751;28;20194;-82
2023/10/30 03:49:38;;;;;;;3.58;2.00;;;8.30;99.90;;;;;;5033157;28;20203;-82
2023/10/30 03:52:07;;;;;;;3.50;2.10;;;8.20;99.90;;;;;;5032572;28;20218;-82
2023/10/30 03:54:34;;;;;;;2.20;1.80;;;8.20;99.90;;;;;;5031160;28;20233;-82
2023/10/30 03:57:01;;;;;;;2.50;1.85;;;8.10;99.90;;;;;;5028638;28;20289;-82
2023/10/30 03:59:28;;;;;;;2.83;2.20;;;8.10;99.90;;;;;;5028764;28;20195;-82
2023/10/30 04:01:55;;;;;;;3.03;2.25;;;8.10;99.90;;;;;;5030011;28;20191;-82
2023/10/30 04:04:22;;;;;;;3.05;2.00;;;8.10;99.90;;;;;;5031644;28;20198;-82
2023/10/30 04:06:49;;;;;;;4.32;2.28;;;8.10;99.90;;;;;;5030762;28;20198;-82
2023/10/30 04:09:17;;;;;;;2.33;2.03;;;8.30;99.90;;;;;;5030388;28;20202;-82
2023/10/30 04:11:46;;;;;;;2.72;1.90;;;8.30;99.90;;;;;;5029345;28;20195;-82
2023/10/30 04:14:13;;;;;;;3.60;2.17;;;8.30;99.90;;;;;;5011927;28;20576;-82
2023/10/30 04:16:40;;;;;;;2.55;2.13;;;8.40;99.90;;;;;;5032148;28;20190;-82
2023/10/30 04:19:08;;;;;;;2.35;2.08;;;8.40;99.90;;;;;;5033820;28;20210;-82
2023/10/30 04:21:35;;;;;;;3.00;1.90;;;8.40;99.90;;;;;;5030692;28;20208;-82
2023/10/30 04:24:02;;;;;;;5.95;2.33;;;8.40;99.90;;;;;;5032884;28;20205;-82
2023/10/30 04:26:31;;;;;;;2.28;2.08;;;8.40;99.90;;;;;;5039843;28;20210;-82
2023/10/30 04:28:59;;;;;;;3.97;1.83;;;8.40;99.90;;;;;;5033523;28;20206;-82
2023/10/30 04:31:26;;;;;;;3.55;2.22;;;8.40;99.90;;;;;;5033260;28;20195;-83
2023/10/30 04:33:53;;;;;;;2.28;2.08;;;8.60;99.90;;;;;;5028167;28;20226;-82
2023/10/30 04:36:20;;;;;;;4.32;2.25;;;8.50;99.60;;;;;;5025849;28;20272;-82
2023/10/30 04:38:47;;;;;;;2.95;2.15;;;8.30;99.90;;;;;;5027387;28;20853;-82
2023/10/30 04:41:14;;;;;;;3.20;2.10;;;8.20;99.90;;;;;;5031162;28;20282;-82
2023/10/30 04:43:42;;;;;;;2.50;2.30;;;8.30;99.90;;;;;;5028813;28;20639;-82
2023/10/30 04:46:09;;;;;;;2.45;2.08;;;8.20;99.90;;;;;;5032295;28;20644;-82
2023/10/30 04:48:36;;;;;;;7.07;2.22;;;8.20;99.90;;;;;;5032098;28;20223;-82
2023/10/30 04:51:03;;;;;;;2.35;2.15;;;8.40;99.90;;;;;;5027524;28;20214;-82
2023/10/30 04:53:30;;;;;;;4.15;2.33;;;8.50;99.90;;;;;;5026521;28;20959;-82
2023/10/30 04:55:57;;;;;;;3.30;2.38;;;8.40;99.90;;;;;;5029823;28;20211;-82
2023/10/30 04:58:24;;;;;;;3.45;2.30;;;8.30;99.90;;;;;;5033361;28;20203;-82
2023/10/30 05:00:52;;;;;;;6.03;2.70;;;8.20;99.90;;;;;;5033911;28;20206;-82
2023/10/30 05:03:19;;;;;;;3.05;2.70;;;8.20;99.90;;;;;;5032536;28;20657;-82
2023/10/30 05:05:46;;;;;;;5.32;2.75;;;8.30;99.90;;;;;;5027007;28;20195;-82
2023/10/30 05:08:13;;;;;;;5.30;2.75;;;8.40;99.90;;;;;;5029300;28;20187;-82
2023/10/30 05:10:39;;;;;;;4.47;2.80;;;8.40;99.90;;;;;;5030382;28;20198;-82
2023/10/30 05:13:09;;;;;;;6.45;2.85;;;8.40;99.90;;;;;;5032414;28;20194;-83
2023/10/30 05:15:36;;;;;;;5.50;2.85;;;8.50;99.90;;;;;;5029540;28;20223;-83
2023/10/30 05:18:04;;;;;;;6.82;3.25;;;8.60;99.90;;;;;;5022523;28;20203;-82
2023/10/30 05:20:31;;;;;;;4.03;3.13;;;8.60;99.90;;;;;;5022193;28;20614;-82
2023/10/30 05:22:58;;;;;;;4.22;2.90;;;8.50;99.90;;;;;;5030606;28;20650;-83
2023/10/30 05:25:25;;;;;;;3.78;3.00;;;8.50;99.90;;;;;;5026256;28;20203;-82
2023/10/30 05:27:52;;;;;;;3.65;3.00;;;8.50;99.90;;;;;;5030546;28;20195;-82
2023/10/30 05:30:20;;;;;;;4.78;2.90;;;8.50;99.90;;;;;;5030621;28;20199;-82
2023/10/30 05:32:47;;;;;;;3.92;3.22;;;8.60;99.90;;;;;;5027009;28;20212;-82
2023/10/30 05:35:16;;;;;;;5.80;3.10;;;8.70;99.90;;;;;;5032981;28;20268;-82
2023/10/30 05:37:43;;;;;;;4.35;3.10;;;8.70;99.90;;;;;;5027039;28;20225;-83
2023/10/30 05:40:11;;;;;;;4.80;3.25;;;8.70;99.90;;;;;;5012308;28;20522;-82
2023/10/30 05:42:37;;;;;;;4.82;3.58;;;8.70;99.90;;;;;;5029200;28;20211;-83
2023/10/30 05:45:05;;;;;;;6.43;3.10;;;8.60;99.90;;;;;;5031799;28;20190;-83
2023/10/30 05:47:32;;;;;;;3.53;3.05;;;8.60;99.90;;;;;;5032916;28;20721;-82
2023/10/30 05:49:59;;;;;;;3.35;3.05;;;8.70;99.90;;;;;;5029354;28;20206;-82
2023/10/30 05:52:27;;;;;;;5.28;3.22;;;8.80;99.90;;;;;;5027384;28;20210;-82
2023/10/30 05:54:54;;;;;;;4.93;3.05;;;8.80;99.90;;;;;;5031077;28;20229;-83
2023/10/30 05:57:21;;;;;;;4.68;3.53;;;8.70;99.90;;;;;;5031006;28;20209;-83
2023/10/30 05:59:48;;;;;;;4.07;3.28;;;8.60;99.90;;;;;;5023127;28;20198;-83
2023/10/30 06:02:15;;;;;;;4.20;3.47;;;8.40;99.90;;;;;;5024213;28;20229;-82
2023/10/30 06:04:42;;;;;;;5.57;3.63;;;8.30;99.90;;;;;;5030928;28;20297;-84
2023/10/30 06:07:09;;;;;;;4.55;3.60;;;8.10;99.90;;;;;;5028545;28;20186;-83
2023/10/30 06:09:37;;;;;;;4.07;3.45;;;8.00;99.90;;;;;;5026874;28;20246;-84
2023/10/30 06:12:08;;;;;;;4.35;3.50;;;7.90;99.90;;;;;;5027900;28;20191;-83
2023/10/30 06:14:35;;;;;;;7.07;3.92;;;7.80;99.90;;;;;;5031316;28;20218;-83
2023/10/30 06:17:02;;;;;;;5.88;3.95;;;7.80;99.90;;;;;;5029850;28;20198;-84
2023/10/30 06:19:29;;;;;;;4.45;3.75;;;7.80;99.90;;;;;;5026351;28;20214;-83
2023/10/30 06:21:56;;;;;;;5.50;4.38;;;7.80;99.90;;;;;;5029193;28;20194;-84
2023/10/30 06:24:25;;;;;;;7.38;3.72;;;7.90;99.90;;;;;;5029515;28;20191;-83
2023/10/30 06:26:53;;;;;;;6.07;3.70;;;7.90;99.90;;;;;;5026208;28;20549;-83
2023/10/30 06:29:20;;;;;;;4.10;3.70;;;7.90;99.90;;;;;;5026546;28;20679;-84
2023/10/30 06:31:47;;;;;;;5.05;3.67;;;7.80;99.90;;;;;;5029669;28;20194;-84
2023/10/30 06:34:14;;;;;;;4.65;3.47;;;7.80;99.90;;;;;;5025898;28;20223;-85
2023/10/30 06:36:41;;;;;;;8.00;4.00;;;7.80;99.90;;;;;;5028840;28;20225;-85
2023/10/30 06:39:09;;;;;;;6.22;3.53;;;7.70;99.90;;;;;;5027829;28;20203;-86
2023/10/30 06:41:36;;;;;;;8.48;3.88;;;7.80;99.90;;;;;;5041434;28;20229;-84
2023/10/30 06:44:04;;;;;;;7.97;3.90;;;7.80;99.90;;;;;;5042409;28;20183;-83
2023/10/30 06:46:31;;;;;;;4.63;3.47;;;7.80;99.90;;;;;;5037145;28;20264;-83
2023/10/30 06:49:00;;;;;;;3.83;3.17;;;7.80;99.90;;;;;;5032329;28;20197;-85
2023/10/30 06:51:27;;;;;;;6.32;3.30;;;8.10;99.90;;;;;;5032798;28;20309;-84
2023/10/30 06:53:53;;;;;;;6.75;3.80;;;8.00;99.90;;;;;;5031067;28;20198;-83
2023/10/30 06:56:20;;;;;;;7.68;3.53;;;8.00;99.90;;;;;;5027270;28;20747;-83
2023/10/30 06:58:47;;;;;;;6.55;4.10;;;8.10;99.90;;;;;;5031915;28;20191;-83
2023/10/30 07:01:16;;;;;;;8.13;3.40;;;8.10;99.90;;;;;;5035030;28;20190;-83
2023/10/30 07:03:44;;;;;;;4.13;3.17;;;8.20;99.90;;;;;;5028224;28;20550;-83
2023/10/30 07:06:11;;;;;;;4.93;3.40;;;8.30;99.90;;;;;;5031118;28;20655;-83
2023/10/30 07:08:40;;;;;;;6.03;3.50;;;8.40;99.90;;;;;;5036209;28;20195;-88
2023/10/30 07:11:07;;;;;;;5.90;3.45;;;8.60;99.90;;;;;;5033140;28;20606;-83
2023/10/30 07:13:35;;;;;;;4.43;3.40;;;8.60;99.90;;;;;;5036943;28;20272;-84
2023/10/30 07:16:02;;;;;;;5.90;3.80;;;8.70;99.90;;;;;;5032250;28;20698;-84
2023/10/30 07:18:30;;;;;;;6.25;3.50;;;8.70;99.90;;;;;;5032655;28;20206;-81
2023/10/30 07:20:57;;;;;;;5.75;3.30;;;8.80;99.90;;;;;;5032810;28;20191;-83
2023/10/30 07:23:24;;;;;;;3.45;3.13;;;8.80;99.90;;;;;;5029695;28;20194;-83
2023/10/30 07:25:51;;;;;;;5.32;3.63;;;8.80;99.90;;;;;;5031030;28;20206;-83
2023/10/30 07:28:18;;;;;;;6.97;3.92;;;8.90;99.90;;;;;;5032893;28;20206;-82
2023/10/30 07:30:45;;;;;;;4.85;3.70;;;9.10;99.90;;;;;;5030547;28;20195;-83
2023/10/30 07:33:11;;;;;;;4.07;3.35;;;9.30;99.90;;;;;;5032635;28;20200;-82
2023/10/30 07:35:40;;;;;;;5.65;3.72;;;9.50;99.90;;;;;;5031448;28;20214;-83
2023/10/30 07:38:09;;;;;;;7.40;3.78;;;9.70;99.90;;;;;;5030443;28;20194;-83
2023/10/30 07:40:36;;;;;;;6.40;5.30;;;9.80;99.90;;;;;;5023241;28;20195;-83
2023/10/30 07:43:03;;;;;;;7.10;3.90;;;10.00;99.90;;;;;;5031073;28;20191;-84
2023/10/30 07:45:30;;;;;;;5.57;3.83;;;10.00;99.90;;;;;;5033185;28;20210;-83
2023/10/30 07:47:56;;;;;;;7.50;5.95;;;10.10;99.90;;;;;;5028327;28;20209;-82
2023/10/30 07:50:24;;;;;;;7.07;3.88;;;10.30;99.80;;;;;;5027666;28;21889;-87
2023/10/30 07:52:52;;;;;;;13.50;8.65;;;10.50;99.40;;;;;;5031691;28;20191;-83
2023/10/30 07:55:21;;;;;;;6.07;4.10;;;10.60;99.10;;;;;;5028184;28;20565;-83
2023/10/30 07:57:48;;;;;;;5.13;4.38;;;10.70;98.70;;;;;;5031276;28;20643;-83
2023/10/30 08:00:16;;;;;;;4.22;3.58;;;10.70;98.80;;;;;;5030129;28;20202;-84
2023/10/30 08:02:46;;;;;;;7.45;4.25;;;10.80;98.80;;;;;;5032328;28;20195;-84
2023/10/30 08:05:13;;;;;;;6.38;4.30;;;10.90;98.60;;;;;;5031869;28;20202;-82
2023/10/30 08:07:40;;;;;;;3.80;3.45;;;11.00;98.30;;;;;;5037722;28;20281;-83
2023/10/30 08:10:11;;;;;;;7.13;3.80;;;11.10;98.20;;;;;;5031110;28;20202;-84
2023/10/30 08:12:39;;;;;;;4.60;3.92;;;11.30;97.30;;;;;;5030511;28;20717;-84
2023/10/30 08:15:07;;;;;;;6.93;4.70;;;11.40;96.10;;;;;;5032093;28;20268;-83
2023/10/30 08:17:34;;;;;;;5.28;4.00;;;11.60;96.10;;;;;;5029732;28;20195;-84
2023/10/30 08:20:01;;;;;;;7.55;4.10;;;11.70;96.10;;;;;;5030514;28;20904;-85
2023/10/30 08:22:28;;;;;;;7.07;4.20;;;11.80;95.70;;;;;;5030636;28;20205;-85
2023/10/30 08:24:55;;;;;;;5.72;3.92;;;11.90;95.70;;;;;;5028328;28;20203;-85
2023/10/30 08:27:23;;;;;;;5.20;3.40;;;12.20;94.90;;;;;;5032619;28;20199;-87
2023/10/30 08:29:50;;;;;;;8.32;6.85;;;12.20;94.80;;;;;;5023967;28;20201;-87
2023/10/30 08:32:18;;;;;;;5.95;3.80;;;12.40;94.50;;;;;;5032643;28;20707;-87
2023/10/30 08:34:45;;;;;;;4.75;4.20;;;12.50;94.20;;;;;;5028486;28;20592;-84
2023/10/30 08:37:12;;;;;;;4.47;3.50;;;12.60;94.00;;;;;;5029008;28;20206;-85
2023/10/30 08:39:39;;;;;;;4.07;3.70;;;12.90;93.20;;;;;;5033812;28;20205;-85
2023/10/30 08:42:06;;;;;;;7.22;4.00;;;13.30;91.90;;;;;;5029578;28;20194;-85
2023/10/30 08:44:34;;;;;;;6.07;4.53;;;13.50;91.10;;;;;;5030437;28;20198;-85
2023/10/30 08:47:01;;;;;;;4.70;3.20;;;13.60;91.10;;;;;;5028227;28;20207;-85
2023/10/30 08:49:28;;;;;;;3.08;2.83;;;13.60;91.20;;;;;;5032287;28;20281;-86
2023/10/30 08:51:55;;;;;;;6.07;4.05;;;13.70;91.30;;;;;;5030445;28;20264;-85
2023/10/30 08:54:22;;;;;;;4.05;3.15;;;13.80;91.20;;;;;;5037124;28;20201;-85
2023/10/30 08:56:49;;;;;;;7.15;3.70;;;13.90;90.60;;;;;;5027957;28;20225;-85
2023/10/30 08:59:17;;;;;;;4.53;2.80;;;14.20;87.80;;;;;;5029951;28;20647;-88
2023/10/30 09:01:45;;;;;;;5.30;2.80;;;15.20;83.60;;;;;;5022367;28;20659;-85
2023/10/30 09:04:12;;;;;;;5.57;2.60;;;16.10;72.70;;;;;;5028808;28;20203;-86
2023/10/30 09:06:39;;;;;;;6.05;3.13;;;16.50;62.10;;;;;;5027733;28;20207;-86
2023/10/30 09:09:06;;;;;;;3.20;2.70;;;16.70;54.60;;;;;;5027247;28;20237;-85
2023/10/30 09:11:32;;;;;;;5.13;2.30;;;17.30;50.50;;;;;;5029590;28;20190;-85
2023/10/30 09:13:59;;;;;;;3.40;3.00;;;18.00;43.50;;;;;;5026131;28;20195;-85
2023/10/30 09:16:26;;;;;;;5.00;2.80;;;18.60;35.90;;;;;;5024175;28;20245;-85
2023/10/30 09:18:54;;;;;;;2.75;2.20;;;18.80;32.20;;;;;;5026765;28;20207;-90
2023/10/30 09:21:21;;;;;;;4.68;2.35;;;19.40;29.40;;;;;;5026046;28;20199;-84
2023/10/30 09:23:48;;;;;;;5.03;2.50;;;19.50;25.20;;;;;;5025878;28;20198;-85
2023/10/30 09:26:15;;;;;;;4.80;2.40;;;19.10;26.00;;;;;;5029181;28;20206;-89
2023/10/30 09:28:42;;;;;;;2.42;2.00;;;19.00;27.10;;;;;;5010369;28;20210;-86
2023/10/30 09:31:09;;;;;;;3.85;2.92;;;18.90;27.90;;;;;;5030866;28;20210;-84
2023/10/30 09:33:36;;;;;;;3.92;1.90;;;19.00;26.40;;;;;;5034708;28;20667;-84
2023/10/30 09:36:05;;;;;;;2.70;2.05;;;18.80;27.40;;;;;;5030589;28;20288;-85
2023/10/30 09:38:32;;;;;;;2.33;1.67;;;18.80;25.20;;;;;;5027367;28;20198;-84
2023/10/30 09:41:02;;;;;;;3.42;2.22;;;18.50;25.60;;;;;;5031553;28;20190;-84
2023/10/30 09:43:29;;;;;;;2.78;1.83;;;18.40;26.40;;;;;;5030531;28;20203;-84
2023/10/30 09:45:59;;;;;;;3.05;2.10;;;18.20;26.50;;;;;;5026222;28;20195;-84
2023/10/30 09:48:28;;;;;;;2.40;2.10;;;18.00;27.80;;;;;;5031471;28;20190;-84
2023/10/30 09:50:55;;;;;;;3.65;1.80;;;18.00;27.90;;;;;;5029509;28;20276;-85
2023/10/30 09:53:25;;;;;;;3.25;2.03;;;17.90;29.10;;;;;;5029222;28;20265;-83
2023/10/30 09:55:54;;;;;;;3.28;2.03;;;18.20;28.20;;;;;;5032358;28;20217;-83
2023/10/30 09:58:23;;;;;;;2.72;2.05;;;17.80;28.60;;;;;;5030095;28;20205;-84
2023/10/30 10:00:50;;;;;;;5.07;2.17;;;17.80;30.20;;;;;;5027051;28;20658;-84
2023/10/30 10:03:17;;;;;;;2.97;2.20;;;17.90;29.00;;;;;;5028808;28;20190;-84
2023/10/30 10:05:44;;;;;;;4.97;1.90;;;18.00;28.80;;;;;;5033032;28;20702;-84
2023/10/30 10:08:12;;;;;;;3.03;2.13;;;18.20;29.40;;;;;;5027746;28;20203;-83
2023/10/30 10:10:56;;;;;;;4.95;2.17;;;18.30;28.00;;;;;;5028199;28;20195;-83
2023/10/30 10:13:24;;;;;;;2.63;1.88;;;18.30;28.50;;;;;;5026172;28;20202;-84
2023/10/30 10:15:51;;;;;;;3.53;2.50;;;18.30;28.20;;;;;;5028998;28;20214;-85
2023/10/30 10:18:26;;;;;;;3.05;2.00;;;18.30;27.90;;;;;;5027260;28;20289;-84
2023/10/30 10:20:56;;;;;;;4.70;2.20;;;18.40;28.00;;;;;;5029903;28;20198;-83
2023/10/30 10:23:24;;;;;;;5.57;2.30;;;18.20;29.20;;;;;;5033451;28;20199;-84
2023/10/30 10:25:56;;;;;;;2.50;1.90;;;18.20;29.70;;;;;;5031178;28;20198;-85
2023/10/30 10:28:23;;;;;;;3.55;2.47;;;17.80;29.30;;;;;;5030875;28;20272;-84
2023/10/30 10:30:51;;;;;;;4.57;2.05;;;18.00;30.30;;;;;;5033855;28;20194;-85
2023/10/30 10:33:19;;;;;;;4.05;1.77;;;17.80;30.20;;;;;;5034838;28;20244;-83
2023/10/30 10:35:48;;;;;;;2.55;1.70;;;17.60;30.10;;;;;;5033702;28;20226;-83
2023/10/30 10:38:16;;;;;;;2.70;1.70;;;17.40;31.20;;;;;;5032979;28;20651;-84
2023/10/30 10:40:46;;;;;;;4.75;2.10;;;17.30;31.60;;;;;;5031948;28;20234;-84
2023/10/30 10:43:18;;;;;;;2.83;1.77;;;17.20;33.30;;;;;;5038162;28;20717;-83
2023/10/30 10:45:46;;;;;;;4.03;1.67;;;17.10;33.90;;;;;;5033644;28;20198;-84
2023/10/30 10:48:13;;;;;;;3.92;1.80;;;17.20;33.90;;;;;;5029809;28;20248;-84
2023/10/30 10:50:41;;;;;;;1.92;1.77;;;17.30;33.10;;;;;;5029810;28;20218;-84
2023/10/30 10:53:08;;;;;;;3.55;1.90;;;17.30;33.50;;;;;;5032717;28;20561;-84
2023/10/30 10:55:40;;;;;;;4.35;2.00;;;17.30;32.30;;;;;;5031019;28;20194;-84
2023/10/30 10:58:12;;;;;;;3.70;1.92;;;17.30;32.60;;;;;;5035943;28;20628;-83
2023/10/30 11:00:47;;;;;;;3.28;1.88;;;17.50;31.90;;;;;;5032205;28;20203;-83
2023/10/30 11:03:14;;;;;;;3.65;1.70;;;17.50;33.50;;;;;;5028877;28;20190;-83
2023/10/30 11:05:43;;;;;;;4.30;2.00;;;17.60;31.90;;;;;;5032587;28;20209;-83
2023/10/30 11:08:24;;;;;;;2.10;1.67;;;17.60;30.70;;;;;;5031886;28;20198;-83
2023/10/30 11:10:56;;;;;;;3.15;1.80;;;17.50;31.40;;;;;;5031206;28;20182;-83
2023/10/30 11:13:31;;;;;;;2.67;1.60;;;17.40;32.00;;;;;;5033027;28;20194;-83
2023/10/30 11:16:07;;;;;;;2.75;1.80;;;17.40;33.10;;;;;;5030915;28;20226;-84
2023/10/30 11:18:34;;;;;;;2.78;1.80;;;17.30;32.90;;;;;;5032602;28;20197;-83
2023/10/30 11:21:12;;;;;;;3.35;2.08;;;17.40;32.90;;;;;;5032226;28;20230;-83
2023/10/30 11:23:56;;;;;;;3.72;2.00;;;17.20;34.50;;;;;;5029386;28;20277;-83
2023/10/30 11:26:40;;;;;;;3.58;1.88;;;17.00;35.50;;;;;;5032056;28;20214;-83
2023/10/30 11:29:09;;;;;;;2.92;2.00;;;17.00;38.20;;;;;;5033439;28;20585;-84
2023/10/30 11:32:10;;;;;;;2.22;1.90;;;16.90;37.20;;;;;;5030226;28;20657;-84
2023/10/30 11:34:39;;;;;;;2.42;1.75;;;16.80;39.00;;;;;;5020132;28;20199;-83
2023/10/30 11:37:10;;;;;;;2.45;1.80;;;16.70;40.20;;;;;;5031944;28;20272;-84
2023/10/30 11:39:39;;;;;;;2.78;1.77;;;16.90;40.10;;;;;;5032366;28;20797;-84
2023/10/30 11:42:28;;;;;;;1.85;1.48;;;16.80;40.90;;;;;;5032366;28;20190;-84
2023/10/30 11:45:22;;;;;;;2.28;1.90;;;16.70;41.50;;;;;;5032295;28;20202;-83
2023/10/30 11:47:58;;;;;;;2.97;1.90;;;16.70;41.70;;;;;;5035631;28;20643;-83
2023/10/30 11:50:28;;;;;;;3.55;1.83;;;16.80;42.70;;;;;;5031636;28;20194;-84
2023/10/30 11:52:58;;;;;;;2.78;1.73;;;16.80;41.90;;;;;;5032245;28;20195;-83
2023/10/30 11:55:26;;;;;;;2.20;1.70;;;16.80;42.80;;;;;;5029101;28;20229;-84
2023/10/30 11:57:53;;;;;;;8.77;2.05;;;16.80;43.60;;;;;;5033324;28;20219;-84
2023/10/30 12:00:20;;;;;;;2.58;2.00;;;16.70;45.50;;;;;;5032243;28;21664;-83
2023/10/30 12:02:47;;;;;;;4.57;1.77;;;16.60;44.40;;;;;;5038445;28;20660;-84
2023/10/30 12:05:14;;;;;;;2.28;1.88;;;16.60;45.60;;;;;;5033405;28;20198;-84
2023/10/30 12:07:43;;;;;;;2.78;1.90;;;16.80;45.80;;;;;;5031660;28;20651;-85
2023/10/30 12:10:10;;;;;;;2.25;1.83;;;16.90;44.50;;;;;;5017154;28;20195;-85
2023/10/30 12:12:37;;;;;;;6.95;1.92;;;16.90;44.60;;;;;;5033284;28;20765;-84
2023/10/30 12:15:04;;;;;;;3.60;1.77;;;16.70;45.20;;;;;;5033604;28;20194;-84
2023/10/30 12:17:31;;;;;;;3.50;1.80;;;16.70;45.00;;;;;;5033078;28;20770;-84
2023/10/30 12:19:59;;;;;;;2.80;1.80;;;16.60;47.20;;;;;;5033361;28;20197;-88
2023/10/30 12:22:26;;;;;;;3.13;1.70;;;16.60;48.50;;;;;;5040194;28;20297;-84
2023/10/30 12:24:56;;;;;;;2.33;1.90;;;16.50;51.60;;;;;;5031619;28;20209;-84
2023/10/30 12:27:24;;;;;;;2.30;1.63;;;16.40;50.90;;;;;;5031854;28;20645;-84
2023/10/30 12:29:56;;;;;;;2.97;1.80;;;16.30;52.50;;;;;;5029925;28;20195;-84
2023/10/30 12:32:26;;;;;;;4.82;1.85;;;16.40;52.60;;;;;;5029230;28;20201;-84
2023/10/30 12:34:53;;;;;;;2.50;1.88;;;16.40;56.30;;;;;;5027591;28;20188;-84
2023/10/30 12:37:23;;;;;;;3.97;1.85;;;16.50;52.80;;;;;;5029472;28;20222;-84
2023/10/30 12:40:05;;;;;;;2.38;1.77;;;16.50;52.70;;;;;;5026932;28;20654;-84
2023/10/30 12:42:37;;;;;;;2.25;1.90;;;16.50;55.40;;;;;;5031187;28;20236;-84
2023/10/30 12:45:09;;;;;;;2.08;1.88;;;16.40;53.90;;;;;;5033790;28;20190;-84
2023/10/30 12:47:36;;;;;;;3.22;2.25;;;16.40;55.90;;;;;;5030383;28;20198;-84
2023/10/30 12:50:04;;;;;;;4.63;2.17;;;16.40;55.10;;;;;;5037304;28;20529;-84
2023/10/30 12:52:32;;;;;;;4.80;2.10;;;16.40;55.20;;;;;;5031769;28;20218;-84
2023/10/30 12:54:59;;;;;;;3.83;2.40;;;16.30;57.30;;;;;;5036306;28;20190;-84
2023/10/30 12:57:28;;;;;;;4.63;2.10;;;16.20;58.70;;;;;;5033058;28;20223;-84